Terminal Aerodrome Forecast
Issued by NWS Wichita, KS

Home | Current Version | Previous Version | Graphics & Text | Print | Product List | Glossary On
Versions: 1 2 3 4 5 6 7 8 9 10 11 12 13 14 15 16 17
286
FTUS43 KICT 260522
TAFICT
TAF
KICT 260522Z 2606/2706 06005KT P6SM SCT020
      TEMPO 2609/2613 5SM BR BKN018
     FM261500 09007KT P6SM SCT030
     FM261900 13011KT P6SM FEW030
     FM270100 14006KT P6SM SCT030=

USA.gov is the U.S. government's official web portal to all federal, state and local government web resources and services.